sensor_id;sensor_type;location;lat;lon;timestamp;temperature;humidity
17296;DHT22;8766;51.480;6.872;2022-08-19T00:00:58;22.00;56.90
17296;DHT22;8766;51.480;6.872;2022-08-19T00:03:24;22.00;56.90
17296;DHT22;8766;51.480;6.872;2022-08-19T00:05:51;21.90;56.90
17296;DHT22;8766;51.480;6.872;2022-08-19T00:08:18;21.90;56.90
17296;DHT22;8766;51.480;6.872;2022-08-19T00:10:47;21.90;57.00
17296;DHT22;8766;51.480;6.872;2022-08-19T00:13:14;21.90;57.00
17296;DHT22;8766;51.480;6.872;2022-08-19T00:15:41;21.80;57.00
17296;DHT22;8766;51.480;6.872;2022-08-19T00:18:10;21.80;57.00
17296;DHT22;8766;51.480;6.872;2022-08-19T00:20:37;21.80;57.00
17296;DHT22;8766;51.480;6.872;2022-08-19T00:23:06;21.80;57.00
17296;DHT22;8766;51.480;6.872;2022-08-19T00:25:33;21.80;57.10
17296;DHT22;8766;51.480;6.872;2022-08-19T00:28:04;21.80;57.10
17296;DHT22;8766;51.480;6.872;2022-08-19T00:30:31;21.70;57.10
17296;DHT22;8766;51.480;6.872;2022-08-19T00:32:58;21.70;57.20
17296;DHT22;8766;51.480;6.872;2022-08-19T00:35:25;21.70;57.20
17296;DHT22;8766;51.480;6.872;2022-08-19T00:37:53;21.70;57.20
17296;DHT22;8766;51.480;6.872;2022-08-19T00:40:20;21.60;57.20
17296;DHT22;8766;51.480;6.872;2022-08-19T00:42:47;21.60;57.30
17296;DHT22;8766;51.480;6.872;2022-08-19T00:45:18;21.60;57.30
17296;DHT22;8766;51.480;6.872;2022-08-19T00:47:45;21.60;57.30
17296;DHT22;8766;51.480;6.872;2022-08-19T00:50:15;21.60;57.30
17296;DHT22;8766;51.480;6.872;2022-08-19T00:52:46;21.50;57.30
17296;DHT22;8766;51.480;6.872;2022-08-19T00:55:16;21.50;57.40
17296;DHT22;8766;51.480;6.872;2022-08-19T00:57:48;21.50;57.40
17296;DHT22;8766;51.480;6.872;2022-08-19T01:00:19;21.50;57.40
17296;DHT22;8766;51.480;6.872;2022-08-19T01:02:46;21.50;57.40
17296;DHT22;8766;51.480;6.872;2022-08-19T01:05:15;21.50;57.50
17296;DHT22;8766;51.480;6.872;2022-08-19T01:07:44;21.50;57.50
17296;DHT22;8766;51.480;6.872;2022-08-19T01:10:16;21.40;57.60
17296;DHT22;8766;51.480;6.872;2022-08-19T01:12:44;21.40;57.60
17296;DHT22;8766;51.480;6.872;2022-08-19T01:15:15;21.40;57.60
17296;DHT22;8766;51.480;6.872;2022-08-19T01:17:45;21.40;57.60
17296;DHT22;8766;51.480;6.872;2022-08-19T01:20:15;21.40;57.60
17296;DHT22;8766;51.480;6.872;2022-08-19T01:22:46;21.30;57.60
17296;DHT22;8766;51.480;6.872;2022-08-19T01:25:14;21.30;57.60
17296;DHT22;8766;51.480;6.872;2022-08-19T01:27:43;21.30;57.60
17296;DHT22;8766;51.480;6.872;2022-08-19T01:30:16;21.30;57.70
17296;DHT22;8766;51.480;6.872;2022-08-19T01:32:44;21.20;57.70
17296;DHT22;8766;51.480;6.872;2022-08-19T01:35:12;21.30;57.80
17296;DHT22;8766;51.480;6.872;2022-08-19T01:37:45;21.30;57.80
17296;DHT22;8766;51.480;6.872;2022-08-19T01:40:14;21.20;57.80
17296;DHT22;8766;51.480;6.872;2022-08-19T01:42:41;21.20;57.80
17296;DHT22;8766;51.480;6.872;2022-08-19T01:45:09;21.20;57.80
17296;DHT22;8766;51.480;6.872;2022-08-19T01:47:36;21.20;57.90
17296;DHT22;8766;51.480;6.872;2022-08-19T01:50:05;21.20;57.90
17296;DHT22;8766;51.480;6.872;2022-08-19T01:52:34;21.10;57.90
17296;DHT22;8766;51.480;6.872;2022-08-19T01:55:04;21.10;58.00
17296;DHT22;8766;51.480;6.872;2022-08-19T01:57:32;21.10;58.00
17296;DHT22;8766;51.480;6.872;2022-08-19T01:59:59;21.10;58.00
17296;DHT22;8766;51.480;6.872;2022-08-19T02:02:30;21.10;58.00
17296;DHT22;8766;51.480;6.872;2022-08-19T02:04:57;21.00;58.00
17296;DHT22;8766;51.480;6.872;2022-08-19T02:07:24;21.10;58.10
17296;DHT22;8766;51.480;6.872;2022-08-19T02:09:52;21.00;58.00
17296;DHT22;8766;51.480;6.872;2022-08-19T02:12:22;21.00;58.00
17296;DHT22;8766;51.480;6.872;2022-08-19T02:14:49;21.00;58.10
17296;DHT22;8766;51.480;6.872;2022-08-19T02:17:16;21.00;58.10
17296;DHT22;8766;51.480;6.872;2022-08-19T02:19:43;21.00;58.10
17296;DHT22;8766;51.480;6.872;2022-08-19T02:22:10;21.00;58.20
17296;DHT22;8766;51.480;6.872;2022-08-19T02:24:37;20.90;58.10
17296;DHT22;8766;51.480;6.872;2022-08-19T02:27:05;20.90;58.20
17296;DHT22;8766;51.480;6.872;2022-08-19T02:29:33;20.90;58.20
17296;DHT22;8766;51.480;6.872;2022-08-19T02:32:00;20.90;58.20
17296;DHT22;8766;51.480;6.872;2022-08-19T02:34:27;20.90;58.20
17296;DHT22;8766;51.480;6.872;2022-08-19T02:36:54;20.90;58.30
17296;DHT22;8766;51.480;6.872;2022-08-19T02:39:21;20.80;58.30
17296;DHT22;8766;51.480;6.872;2022-08-19T02:41:47;20.80;58.30
17296;DHT22;8766;51.480;6.872;2022-08-19T02:44:15;20.80;58.30
17296;DHT22;8766;51.480;6.872;2022-08-19T02:46:46;20.80;58.30
17296;DHT22;8766;51.480;6.872;2022-08-19T02:49:14;20.80;58.30
17296;DHT22;8766;51.480;6.872;2022-08-19T02:51:43;20.80;58.30
17296;DHT22;8766;51.480;6.872;2022-08-19T02:54:11;20.80;58.40
17296;DHT22;8766;51.480;6.872;2022-08-19T02:56:40;20.80;58.40
17296;DHT22;8766;51.480;6.872;2022-08-19T02:59:07;20.70;58.40
17296;DHT22;8766;51.480;6.872;2022-08-19T03:01:39;20.70;58.40
17296;DHT22;8766;51.480;6.872;2022-08-19T03:04:09;20.70;58.40
17296;DHT22;8766;51.480;6.872;2022-08-19T03:06:37;20.70;58.50
17296;DHT22;8766;51.480;6.872;2022-08-19T03:09:04;20.70;58.50
17296;DHT22;8766;51.480;6.872;2022-08-19T03:11:32;20.70;58.50
17296;DHT22;8766;51.480;6.872;2022-08-19T03:14:00;20.70;58.50
17296;DHT22;8766;51.480;6.872;2022-08-19T03:16:30;20.70;58.50
17296;DHT22;8766;51.480;6.872;2022-08-19T03:18:57;20.70;58.50
17296;DHT22;8766;51.480;6.872;2022-08-19T03:21:28;20.60;58.40
17296;DHT22;8766;51.480;6.872;2022-08-19T03:23:57;20.60;58.40
17296;DHT22;8766;51.480;6.872;2022-08-19T03:26:24;20.60;58.50
17296;DHT22;8766;51.480;6.872;2022-08-19T03:28:51;20.60;58.50
17296;DHT22;8766;51.480;6.872;2022-08-19T03:31:20;20.60;58.50
17296;DHT22;8766;51.480;6.872;2022-08-19T03:33:48;20.60;58.60
17296;DHT22;8766;51.480;6.872;2022-08-19T03:36:17;20.60;58.60
17296;DHT22;8766;51.480;6.872;2022-08-19T03:38:48;20.60;58.60
17296;DHT22;8766;51.480;6.872;2022-08-19T03:41:17;20.60;58.60
17296;DHT22;8766;51.480;6.872;2022-08-19T03:43:46;20.50;58.60
17296;DHT22;8766;51.480;6.872;2022-08-19T03:46:16;20.50;58.60
17296;DHT22;8766;51.480;6.872;2022-08-19T03:48:47;20.50;58.60
17296;DHT22;8766;51.480;6.872;2022-08-19T03:51:18;20.50;58.70
17296;DHT22;8766;51.480;6.872;2022-08-19T03:53:48;20.50;58.70
17296;DHT22;8766;51.480;6.872;2022-08-19T03:56:15;20.50;58.60
17296;DHT22;8766;51.480;6.872;2022-08-19T03:58:43;20.50;58.70
17296;DHT22;8766;51.480;6.872;2022-08-19T04:01:14;20.50;58.70
17296;DHT22;8766;51.480;6.872;2022-08-19T04:03:41;20.50;58.70
17296;DHT22;8766;51.480;6.872;2022-08-19T04:06:12;20.40;58.70
17296;DHT22;8766;51.480;6.872;2022-08-19T04:08:39;20.40;58.80
17296;DHT22;8766;51.480;6.872;2022-08-19T04:11:10;20.40;58.80
17296;DHT22;8766;51.480;6.872;2022-08-19T04:13:37;20.40;58.80
17296;DHT22;8766;51.480;6.872;2022-08-19T04:16:05;20.40;58.90
17296;DHT22;8766;51.480;6.872;2022-08-19T04:18:33;20.40;58.90
17296;DHT22;8766;51.480;6.872;2022-08-19T04:21:00;20.30;58.90
17296;DHT22;8766;51.480;6.872;2022-08-19T04:23:27;20.30;58.90
17296;DHT22;8766;51.480;6.872;2022-08-19T04:25:55;20.30;58.90
17296;DHT22;8766;51.480;6.872;2022-08-19T04:28:23;20.30;58.90
17296;DHT22;8766;51.480;6.872;2022-08-19T04:30:52;20.30;59.00
17296;DHT22;8766;51.480;6.872;2022-08-19T04:33:22;20.30;59.00
17296;DHT22;8766;51.480;6.872;2022-08-19T04:35:51;20.30;58.90
17296;DHT22;8766;51.480;6.872;2022-08-19T04:38:20;20.30;58.90
17296;DHT22;8766;51.480;6.872;2022-08-19T04:40:50;20.30;58.90
17296;DHT22;8766;51.480;6.872;2022-08-19T04:43:38;20.30;58.90
17296;DHT22;8766;51.480;6.872;2022-08-19T04:46:05;20.30;58.90
17296;DHT22;8766;51.480;6.872;2022-08-19T04:48:33;20.30;58.80
17296;DHT22;8766;51.480;6.872;2022-08-19T04:51:00;20.40;58.80
17296;DHT22;8766;51.480;6.872;2022-08-19T04:53:31;20.40;58.70
17296;DHT22;8766;51.480;6.872;2022-08-19T04:55:59;20.50;58.60
17296;DHT22;8766;51.480;6.872;2022-08-19T04:58:28;20.50;58.50
17296;DHT22;8766;51.480;6.872;2022-08-19T05:00:56;20.50;58.40
17296;DHT22;8766;51.480;6.872;2022-08-19T05:03:25;20.60;58.30
17296;DHT22;8766;51.480;6.872;2022-08-19T05:05:53;20.70;58.20
17296;DHT22;8766;51.480;6.872;2022-08-19T05:08:20;20.80;58.00
17296;DHT22;8766;51.480;6.872;2022-08-19T05:10:49;20.90;57.80
17296;DHT22;8766;51.480;6.872;2022-08-19T05:13:18;21.10;57.60
17296;DHT22;8766;51.480;6.872;2022-08-19T05:15:54;21.20;57.30
17296;DHT22;8766;51.480;6.872;2022-08-19T05:18:23;21.30;57.00
17296;DHT22;8766;51.480;6.872;2022-08-19T05:21:07;21.40;56.90
17296;DHT22;8766;51.480;6.872;2022-08-19T05:23:52;21.40;56.80
17296;DHT22;8766;51.480;6.872;2022-08-19T05:26:19;21.50;56.80
17296;DHT22;8766;51.480;6.872;2022-08-19T05:28:46;21.50;56.70
17296;DHT22;8766;51.480;6.872;2022-08-19T05:31:13;21.50;56.70
17296;DHT22;8766;51.480;6.872;2022-08-19T05:33:41;21.50;56.70
17296;DHT22;8766;51.480;6.872;2022-08-19T05:36:09;21.50;56.70
17296;DHT22;8766;51.480;6.872;2022-08-19T05:38:36;21.50;56.80
17296;DHT22;8766;51.480;6.872;2022-08-19T05:41:07;21.50;56.80
17296;DHT22;8766;51.480;6.872;2022-08-19T05:43:34;21.60;56.90
17296;DHT22;8766;51.480;6.872;2022-08-19T05:46:02;21.60;56.70
17296;DHT22;8766;51.480;6.872;2022-08-19T05:48:31;21.70;56.70
17296;DHT22;8766;51.480;6.872;2022-08-19T05:51:03;21.70;56.60
17296;DHT22;8766;51.480;6.872;2022-08-19T05:53:31;21.90;56.40
17296;DHT22;8766;51.480;6.872;2022-08-19T05:56:04;22.30;55.80
17296;DHT22;8766;51.480;6.872;2022-08-19T05:58:31;23.30;53.90
17296;DHT22;8766;51.480;6.872;2022-08-19T06:00:58;24.50;51.90
17296;DHT22;8766;51.480;6.872;2022-08-19T06:03:29;25.60;50.00
17296;DHT22;8766;51.480;6.872;2022-08-19T06:05:57;26.60;48.40
17296;DHT22;8766;51.480;6.872;2022-08-19T06:08:27;27.40;47.20
17296;DHT22;8766;51.480;6.872;2022-08-19T06:10:55;28.20;46.20
17296;DHT22;8766;51.480;6.872;2022-08-19T06:13:22;28.80;46.00
17296;DHT22;8766;51.480;6.872;2022-08-19T06:15:50;29.00;45.30
17296;DHT22;8766;51.480;6.872;2022-08-19T06:18:17;29.10;45.40
17296;DHT22;8766;51.480;6.872;2022-08-19T06:20:45;28.90;45.80
17296;DHT22;8766;51.480;6.872;2022-08-19T06:23:12;28.80;46.00
17296;DHT22;8766;51.480;6.872;2022-08-19T06:25:40;28.70;46.50
17296;DHT22;8766;51.480;6.872;2022-08-19T06:28:07;28.30;47.20
17296;DHT22;8766;51.480;6.872;2022-08-19T06:30:35;27.80;48.00
17296;DHT22;8766;51.480;6.872;2022-08-19T06:33:02;27.90;48.00
17296;DHT22;8766;51.480;6.872;2022-08-19T06:35:29;28.60;47.10
17296;DHT22;8766;51.480;6.872;2022-08-19T06:37:56;29.50;45.80
17296;DHT22;8766;51.480;6.872;2022-08-19T06:40:24;30.50;44.50
17296;DHT22;8766;51.480;6.872;2022-08-19T06:42:54;31.50;43.30
17296;DHT22;8766;51.480;6.872;2022-08-19T06:45:21;32.30;42.20
17296;DHT22;8766;51.480;6.872;2022-08-19T06:48:02;33.10;41.40
17296;DHT22;8766;51.480;6.872;2022-08-19T06:50:29;33.70;40.70
17296;DHT22;8766;51.480;6.872;2022-08-19T06:52:56;34.20;40.20
17296;DHT22;8766;51.480;6.872;2022-08-19T06:55:23;34.60;39.80
17296;DHT22;8766;51.480;6.872;2022-08-19T06:57:50;35.00;39.60
17296;DHT22;8766;51.480;6.872;2022-08-19T07:00:20;35.30;39.40
17296;DHT22;8766;51.480;6.872;2022-08-19T07:02:47;35.70;39.10
17296;DHT22;8766;51.480;6.872;2022-08-19T07:05:14;35.90;38.90
17296;DHT22;8766;51.480;6.872;2022-08-19T07:07:42;35.70;40.10
17296;DHT22;8766;51.480;6.872;2022-08-19T07:10:09;35.20;40.30
17296;DHT22;8766;51.480;6.872;2022-08-19T07:12:37;34.80;40.90
17296;DHT22;8766;51.480;6.872;2022-08-19T07:15:05;34.40;41.70
17296;DHT22;8766;51.480;6.872;2022-08-19T07:17:35;33.90;42.30
17296;DHT22;8766;51.480;6.872;2022-08-19T07:20:06;33.50;43.00
17296;DHT22;8766;51.480;6.872;2022-08-19T07:22:33;32.70;44.10
17296;DHT22;8766;51.480;6.872;2022-08-19T07:25:01;31.90;45.20
17296;DHT22;8766;51.480;6.872;2022-08-19T07:27:29;31.70;45.60
17296;DHT22;8766;51.480;6.872;2022-08-19T07:29:56;32.60;44.30
17296;DHT22;8766;51.480;6.872;2022-08-19T07:32:24;33.90;42.60
17296;DHT22;8766;51.480;6.872;2022-08-19T07:34:53;35.10;41.10
17296;DHT22;8766;51.480;6.872;2022-08-19T07:37:20;36.00;39.90
17296;DHT22;8766;51.480;6.872;2022-08-19T07:39:47;36.70;39.20
17296;DHT22;8766;51.480;6.872;2022-08-19T07:42:14;36.90;38.90
17296;DHT22;8766;51.480;6.872;2022-08-19T07:44:42;36.80;39.20
17296;DHT22;8766;51.480;6.872;2022-08-19T07:47:09;36.70;39.40
17296;DHT22;8766;51.480;6.872;2022-08-19T07:49:36;36.60;39.90
17296;DHT22;8766;51.480;6.872;2022-08-19T07:52:07;35.90;40.60
17296;DHT22;8766;51.480;6.872;2022-08-19T07:54:37;35.00;41.80
17296;DHT22;8766;51.480;6.872;2022-08-19T07:57:05;34.30;43.00
17296;DHT22;8766;51.480;6.872;2022-08-19T07:59:32;33.60;43.90
17296;DHT22;8766;51.480;6.872;2022-08-19T08:01:59;33.20;44.40
17296;DHT22;8766;51.480;6.872;2022-08-19T08:04:29;33.30;44.50
17296;DHT22;8766;51.480;6.872;2022-08-19T08:07:15;33.10;44.70
17296;DHT22;8766;51.480;6.872;2022-08-19T08:09:59;33.10;44.60
17296;DHT22;8766;51.480;6.872;2022-08-19T08:12:28;33.40;44.00
17296;DHT22;8766;51.480;6.872;2022-08-19T08:14:58;34.20;43.10
17296;DHT22;8766;51.480;6.872;2022-08-19T08:17:28;34.90;42.10
17296;DHT22;8766;51.480;6.872;2022-08-19T08:19:55;35.50;41.30
17296;DHT22;8766;51.480;6.872;2022-08-19T08:22:24;35.70;41.20
17296;DHT22;8766;51.480;6.872;2022-08-19T08:25:17;35.10;41.90
17296;DHT22;8766;51.480;6.872;2022-08-19T08:27:44;34.00;43.20
17296;DHT22;8766;51.480;6.872;2022-08-19T08:30:13;33.30;44.30
17296;DHT22;8766;51.480;6.872;2022-08-19T08:32:41;33.10;44.70
17296;DHT22;8766;51.480;6.872;2022-08-19T08:35:10;33.50;44.10
17296;DHT22;8766;51.480;6.872;2022-08-19T08:37:39;34.00;43.40
17296;DHT22;8766;51.480;6.872;2022-08-19T08:40:09;34.50;42.80
17296;DHT22;8766;51.480;6.872;2022-08-19T08:42:47;35.20;41.80
17296;DHT22;8766;51.480;6.872;2022-08-19T08:45:18;36.10;40.80
17296;DHT22;8766;51.480;6.872;2022-08-19T08:47:47;36.10;40.70
17296;DHT22;8766;51.480;6.872;2022-08-19T08:50:19;35.60;41.30
17296;DHT22;8766;51.480;6.872;2022-08-19T08:52:52;34.60;42.50
17296;DHT22;8766;51.480;6.872;2022-08-19T08:55:23;33.70;44.00
17296;DHT22;8766;51.480;6.872;2022-08-19T08:57:53;32.80;45.10
17296;DHT22;8766;51.480;6.872;2022-08-19T09:00:25;32.10;46.20
17296;DHT22;8766;51.480;6.872;2022-08-19T09:02:53;31.70;46.60
17296;DHT22;8766;51.480;6.872;2022-08-19T09:05:22;32.10;45.90
17296;DHT22;8766;51.480;6.872;2022-08-19T09:07:58;32.70;44.90
17296;DHT22;8766;51.480;6.872;2022-08-19T09:10:31;32.90;44.40
17296;DHT22;8766;51.480;6.872;2022-08-19T09:13:05;33.00;44.30
17296;DHT22;8766;51.480;6.872;2022-08-19T09:15:40;32.80;44.30
17296;DHT22;8766;51.480;6.872;2022-08-19T09:18:08;32.80;44.20
17296;DHT22;8766;51.480;6.872;2022-08-19T09:20:35;32.80;44.00
17296;DHT22;8766;51.480;6.872;2022-08-19T09:23:03;32.80;44.00
17296;DHT22;8766;51.480;6.872;2022-08-19T09:25:30;32.80;44.00
17296;DHT22;8766;51.480;6.872;2022-08-19T09:28:00;32.70;44.10
17296;DHT22;8766;51.480;6.872;2022-08-19T09:30:32;32.50;44.30
17296;DHT22;8766;51.480;6.872;2022-08-19T09:32:59;32.40;44.40
17296;DHT22;8766;51.480;6.872;2022-08-19T09:35:28;32.30;44.60
17296;DHT22;8766;51.480;6.872;2022-08-19T09:37:56;32.20;44.70
17296;DHT22;8766;51.480;6.872;2022-08-19T09:40:25;32.10;44.80
17296;DHT22;8766;51.480;6.872;2022-08-19T09:42:52;32.10;44.80
17296;DHT22;8766;51.480;6.872;2022-08-19T09:45:21;32.00;45.00
17296;DHT22;8766;51.480;6.872;2022-08-19T09:47:48;31.90;45.10
17296;DHT22;8766;51.480;6.872;2022-08-19T09:50:16;31.70;45.30
17296;DHT22;8766;51.480;6.872;2022-08-19T09:52:44;31.70;45.40
17296;DHT22;8766;51.480;6.872;2022-08-19T09:55:12;31.50;45.50
17296;DHT22;8766;51.480;6.872;2022-08-19T09:57:40;31.40;45.80
17296;DHT22;8766;51.480;6.872;2022-08-19T10:00:09;31.20;46.00
17296;DHT22;8766;51.480;6.872;2022-08-19T10:02:36;31.00;46.40
17296;DHT22;8766;51.480;6.872;2022-08-19T10:05:04;30.80;46.60
17296;DHT22;8766;51.480;6.872;2022-08-19T10:07:48;30.60;46.80
17296;DHT22;8766;51.480;6.872;2022-08-19T10:10:16;30.50;47.10
17296;DHT22;8766;51.480;6.872;2022-08-19T10:12:44;30.40;47.20
17296;DHT22;8766;51.480;6.872;2022-08-19T10:15:13;30.40;47.30
17296;DHT22;8766;51.480;6.872;2022-08-19T10:17:40;30.30;47.30
17296;DHT22;8766;51.480;6.872;2022-08-19T10:20:08;30.20;47.40
17296;DHT22;8766;51.480;6.872;2022-08-19T10:22:35;30.10;47.60
17296;DHT22;8766;51.480;6.872;2022-08-19T10:25:04;29.90;47.70
17296;DHT22;8766;51.480;6.872;2022-08-19T10:27:32;29.80;48.50
17296;DHT22;8766;51.480;6.872;2022-08-19T10:30:00;29.70;48.00
17296;DHT22;8766;51.480;6.872;2022-08-19T10:32:27;29.80;47.80
17296;DHT22;8766;51.480;6.872;2022-08-19T10:34:55;29.90;47.60
17296;DHT22;8766;51.480;6.872;2022-08-19T10:37:23;30.10;47.20
17296;DHT22;8766;51.480;6.872;2022-08-19T10:39:51;30.30;47.00
17296;DHT22;8766;51.480;6.872;2022-08-19T10:42:21;30.40;46.70
17296;DHT22;8766;51.480;6.872;2022-08-19T10:44:47;30.40;46.70
17296;DHT22;8766;51.480;6.872;2022-08-19T10:47:17;30.30;46.70
17296;DHT22;8766;51.480;6.872;2022-08-19T10:49:44;30.40;46.80
17296;DHT22;8766;51.480;6.872;2022-08-19T10:52:28;30.30;46.90
17296;DHT22;8766;51.480;6.872;2022-08-19T10:55:03;30.10;47.10
17296;DHT22;8766;51.480;6.872;2022-08-19T10:57:48;29.90;47.40
17296;DHT22;8766;51.480;6.872;2022-08-19T11:00:15;29.70;47.80
17296;DHT22;8766;51.480;6.872;2022-08-19T11:02:44;29.50;48.00
17296;DHT22;8766;51.480;6.872;2022-08-19T11:05:11;29.40;48.10
17296;DHT22;8766;51.480;6.872;2022-08-19T11:07:39;29.40;48.10
17296;DHT22;8766;51.480;6.872;2022-08-19T11:10:08;29.40;48.20
17296;DHT22;8766;51.480;6.872;2022-08-19T11:12:37;29.40;48.30
17296;DHT22;8766;51.480;6.872;2022-08-19T11:15:06;29.30;48.20
17296;DHT22;8766;51.480;6.872;2022-08-19T11:17:36;29.30;48.20
17296;DHT22;8766;51.480;6.872;2022-08-19T11:20:08;29.20;48.20
17296;DHT22;8766;51.480;6.872;2022-08-19T11:22:35;29.20;48.20
17296;DHT22;8766;51.480;6.872;2022-08-19T11:25:03;29.20;48.10
17296;DHT22;8766;51.480;6.872;2022-08-19T11:27:30;29.30;48.10
17296;DHT22;8766;51.480;6.872;2022-08-19T11:29:57;29.40;48.00
17296;DHT22;8766;51.480;6.872;2022-08-19T11:32:24;29.40;47.80
17296;DHT22;8766;51.480;6.872;2022-08-19T11:34:51;29.40;47.80
17296;DHT22;8766;51.480;6.872;2022-08-19T11:37:20;29.40;47.90
17296;DHT22;8766;51.480;6.872;2022-08-19T11:39:47;29.30;47.90
17296;DHT22;8766;51.480;6.872;2022-08-19T11:42:14;29.40;47.90
17296;DHT22;8766;51.480;6.872;2022-08-19T11:44:58;29.50;47.70
17296;DHT22;8766;51.480;6.872;2022-08-19T11:47:26;29.60;47.50
17296;DHT22;8766;51.480;6.872;2022-08-19T11:49:53;29.70;47.30
17296;DHT22;8766;51.480;6.872;2022-08-19T11:52:21;29.70;47.30
17296;DHT22;8766;51.480;6.872;2022-08-19T11:54:48;29.70;47.30
17296;DHT22;8766;51.480;6.872;2022-08-19T11:57:15;29.80;47.20
17296;DHT22;8766;51.480;6.872;2022-08-19T11:59:47;29.90;47.00
17296;DHT22;8766;51.480;6.872;2022-08-19T12:02:14;30.00;46.80
17296;DHT22;8766;51.480;6.872;2022-08-19T12:04:41;30.10;46.70
17296;DHT22;8766;51.480;6.872;2022-08-19T12:07:08;30.00;46.70
17296;DHT22;8766;51.480;6.872;2022-08-19T12:09:37;30.00;46.80
17296;DHT22;8766;51.480;6.872;2022-08-19T12:12:05;29.90;47.00
17296;DHT22;8766;51.480;6.872;2022-08-19T12:14:32;29.70;47.30
17296;DHT22;8766;51.480;6.872;2022-08-19T12:17:00;29.50;47.60
17296;DHT22;8766;51.480;6.872;2022-08-19T12:19:27;29.40;47.80
17296;DHT22;8766;51.480;6.872;2022-08-19T12:21:59;29.20;48.00
17296;DHT22;8766;51.480;6.872;2022-08-19T12:24:27;29.10;48.00
17296;DHT22;8766;51.480;6.872;2022-08-19T12:26:56;29.20;48.10
17296;DHT22;8766;51.480;6.872;2022-08-19T12:29:24;29.10;48.10
17296;DHT22;8766;51.480;6.872;2022-08-19T12:31:55;29.00;48.10
17296;DHT22;8766;51.480;6.872;2022-08-19T12:34:28;29.10;48.20
17296;DHT22;8766;51.480;6.872;2022-08-19T12:36:57;29.10;48.00
17296;DHT22;8766;51.480;6.872;2022-08-19T12:39:24;29.20;47.80
17296;DHT22;8766;51.480;6.872;2022-08-19T12:41:51;29.30;47.70
17296;DHT22;8766;51.480;6.872;2022-08-19T12:44:19;29.30;47.70
17296;DHT22;8766;51.480;6.872;2022-08-19T12:46:46;29.20;47.80
17296;DHT22;8766;51.480;6.872;2022-08-19T12:49:14;29.10;47.80
17296;DHT22;8766;51.480;6.872;2022-08-19T12:51:42;29.10;47.80
17296;DHT22;8766;51.480;6.872;2022-08-19T12:54:09;29.20;47.80
17296;DHT22;8766;51.480;6.872;2022-08-19T12:56:36;29.10;47.70
17296;DHT22;8766;51.480;6.872;2022-08-19T12:59:04;29.10;47.70
17296;DHT22;8766;51.480;6.872;2022-08-19T13:01:34;29.10;47.70
17296;DHT22;8766;51.480;6.872;2022-08-19T13:04:02;29.10;47.80
17296;DHT22;8766;51.480;6.872;2022-08-19T13:06:29;29.00;47.80
17296;DHT22;8766;51.480;6.872;2022-08-19T13:08:56;29.00;47.80
17296;DHT22;8766;51.480;6.872;2022-08-19T13:11:23;29.00;47.90
17296;DHT22;8766;51.480;6.872;2022-08-19T13:13:52;29.00;47.80
17296;DHT22;8766;51.480;6.872;2022-08-19T13:16:20;29.10;47.70
17296;DHT22;8766;51.480;6.872;2022-08-19T13:18:49;29.10;47.70
17296;DHT22;8766;51.480;6.872;2022-08-19T13:21:18;29.10;47.50
17296;DHT22;8766;51.480;6.872;2022-08-19T13:23:46;29.10;47.40
17296;DHT22;8766;51.480;6.872;2022-08-19T13:26:14;29.20;47.30
17296;DHT22;8766;51.480;6.872;2022-08-19T13:28:42;29.30;47.10
17296;DHT22;8766;51.480;6.872;2022-08-19T13:31:30;29.40;47.10
17296;DHT22;8766;51.480;6.872;2022-08-19T13:34:16;29.20;47.20
17296;DHT22;8766;51.480;6.872;2022-08-19T13:36:44;29.20;47.20
17296;DHT22;8766;51.480;6.872;2022-08-19T13:39:12;29.20;47.20
17296;DHT22;8766;51.480;6.872;2022-08-19T13:41:44;29.30;47.10
17296;DHT22;8766;51.480;6.872;2022-08-19T13:44:13;29.40;47.10
17296;DHT22;8766;51.480;6.872;2022-08-19T13:46:40;29.30;47.10
17296;DHT22;8766;51.480;6.872;2022-08-19T13:49:10;29.40;47.00
17296;DHT22;8766;51.480;6.872;2022-08-19T13:51:39;29.40;46.80
17296;DHT22;8766;51.480;6.872;2022-08-19T13:54:06;29.50;46.80
17296;DHT22;8766;51.480;6.872;2022-08-19T13:56:34;29.60;46.60
17296;DHT22;8766;51.480;6.872;2022-08-19T13:59:02;29.70;46.50
17296;DHT22;8766;51.480;6.872;2022-08-19T14:01:29;29.70;46.40
17296;DHT22;8766;51.480;6.872;2022-08-19T14:03:56;29.80;46.40
17296;DHT22;8766;51.480;6.872;2022-08-19T14:06:23;29.80;46.30
17296;DHT22;8766;51.480;6.872;2022-08-19T14:08:52;29.80;46.30
17296;DHT22;8766;51.480;6.872;2022-08-19T14:11:19;29.80;46.30
17296;DHT22;8766;51.480;6.872;2022-08-19T14:13:48;29.80;46.20
17296;DHT22;8766;51.480;6.872;2022-08-19T14:16:16;29.90;46.20
17296;DHT22;8766;51.480;6.872;2022-08-19T14:18:43;29.90;46.10
17296;DHT22;8766;51.480;6.872;2022-08-19T14:21:15;29.90;46.00
17296;DHT22;8766;51.480;6.872;2022-08-19T14:23:43;29.90;46.00
17296;DHT22;8766;51.480;6.872;2022-08-19T14:26:15;29.90;46.00
17296;DHT22;8766;51.480;6.872;2022-08-19T14:28:43;29.90;46.00
17296;DHT22;8766;51.480;6.872;2022-08-19T14:31:11;29.90;46.10
17296;DHT22;8766;51.480;6.872;2022-08-19T14:33:38;29.70;46.20
17296;DHT22;8766;51.480;6.872;2022-08-19T14:36:06;29.70;46.40
17296;DHT22;8766;51.480;6.872;2022-08-19T14:38:33;29.60;46.40
17296;DHT22;8766;51.480;6.872;2022-08-19T14:41:15;29.60;46.40
17296;DHT22;8766;51.480;6.872;2022-08-19T14:43:45;29.70;46.40
17296;DHT22;8766;51.480;6.872;2022-08-19T14:46:14;29.70;46.20
17296;DHT22;8766;51.480;6.872;2022-08-19T14:48:41;29.80;46.10
17296;DHT22;8766;51.480;6.872;2022-08-19T14:51:08;29.90;46.00
17296;DHT22;8766;51.480;6.872;2022-08-19T14:53:35;30.00;45.90
17296;DHT22;8766;51.480;6.872;2022-08-19T14:56:07;30.10;45.70
17296;DHT22;8766;51.480;6.872;2022-08-19T14:58:36;30.20;45.50
17296;DHT22;8766;51.480;6.872;2022-08-19T15:01:04;30.30;45.50
17296;DHT22;8766;51.480;6.872;2022-08-19T15:03:31;30.30;45.40
17296;DHT22;8766;51.480;6.872;2022-08-19T15:05:59;30.30;45.40
17296;DHT22;8766;51.480;6.872;2022-08-19T15:08:29;30.30;45.40
17296;DHT22;8766;51.480;6.872;2022-08-19T15:10:56;30.20;45.50
17296;DHT22;8766;51.480;6.872;2022-08-19T15:13:25;30.20;45.50
17296;DHT22;8766;51.480;6.872;2022-08-19T15:15:54;30.20;45.60
17296;DHT22;8766;51.480;6.872;2022-08-19T15:18:21;30.20;45.60
17296;DHT22;8766;51.480;6.872;2022-08-19T15:20:49;30.20;45.70
17296;DHT22;8766;51.480;6.872;2022-08-19T15:23:18;30.10;45.60
17296;DHT22;8766;51.480;6.872;2022-08-19T15:25:46;30.10;45.60
17296;DHT22;8766;51.480;6.872;2022-08-19T15:28:13;30.10;46.20
17296;DHT22;8766;51.480;6.872;2022-08-19T15:30:42;30.00;45.60
17296;DHT22;8766;51.480;6.872;2022-08-19T15:33:12;30.00;45.70
17296;DHT22;8766;51.480;6.872;2022-08-19T15:35:41;30.00;45.70
17296;DHT22;8766;51.480;6.872;2022-08-19T15:38:09;30.00;45.80
17296;DHT22;8766;51.480;6.872;2022-08-19T15:40:36;30.00;45.80
17296;DHT22;8766;51.480;6.872;2022-08-19T15:43:03;29.90;45.70
17296;DHT22;8766;51.480;6.872;2022-08-19T15:45:30;29.90;45.80
17296;DHT22;8766;51.480;6.872;2022-08-19T15:47:58;29.80;45.90
17296;DHT22;8766;51.480;6.872;2022-08-19T15:50:27;29.70;46.00
17296;DHT22;8766;51.480;6.872;2022-08-19T15:52:58;29.50;46.20
17296;DHT22;8766;51.480;6.872;2022-08-19T15:55:29;29.40;46.50